sensor_id;sensor_type;location;lat;lon;timestamp;P1;durP1;ratioP1;P2;durP2;ratioP2
1412;SDS011;701;52.526;13.408;2022-07-23T00:00:08;9.35;;;4.90;;
1412;SDS011;701;52.526;13.408;2022-07-23T00:02:34;9.47;;;4.80;;
1412;SDS011;701;52.526;13.408;2022-07-23T00:04:59;9.10;;;4.57;;
1412;SDS011;701;52.526;13.408;2022-07-23T00:07:25;9.48;;;4.68;;
1412;SDS011;701;52.526;13.408;2022-07-23T00:09:51;13.67;;;4.87;;
1412;SDS011;701;52.526;13.408;2022-07-23T00:12:16;8.60;;;4.40;;
1412;SDS011;701;52.526;13.408;2022-07-23T00:14:42;8.80;;;4.80;;
1412;SDS011;701;52.526;13.408;2022-07-23T00:17:07;9.80;;;4.80;;
1412;SDS011;701;52.526;13.408;2022-07-23T00:19:33;11.93;;;4.50;;
1412;SDS011;701;52.526;13.408;2022-07-23T00:21:58;13.47;;;4.93;;
1412;SDS011;701;52.526;13.408;2022-07-23T00:24:24;9.70;;;4.83;;
1412;SDS011;701;52.526;13.408;2022-07-23T00:26:50;9.55;;;4.88;;
1412;SDS011;701;52.526;13.408;2022-07-23T00:29:15;8.43;;;4.73;;
1412;SDS011;701;52.526;13.408;2022-07-23T00:31:41;9.02;;;4.60;;
1412;SDS011;701;52.526;13.408;2022-07-23T00:34:07;9.83;;;4.67;;
1412;SDS011;701;52.526;13.408;2022-07-23T00:36:32;9.90;;;4.33;;
1412;SDS011;701;52.526;13.408;2022-07-23T00:38:58;11.07;;;4.95;;
1412;SDS011;701;52.526;13.408;2022-07-23T00:41:23;7.30;;;4.20;;
1412;SDS011;701;52.526;13.408;2022-07-23T00:43:49;10.05;;;4.57;;
1412;SDS011;701;52.526;13.408;2022-07-23T00:46:21;9.67;;;4.53;;
1412;SDS011;701;52.526;13.408;2022-07-23T00:48:47;9.98;;;4.32;;
1412;SDS011;701;52.526;13.408;2022-07-23T00:51:14;10.73;;;4.77;;
1412;SDS011;701;52.526;13.408;2022-07-23T00:53:41;9.30;;;4.68;;
1412;SDS011;701;52.526;13.408;2022-07-23T00:56:07;8.77;;;4.55;;
1412;SDS011;701;52.526;13.408;2022-07-23T00:58:32;13.10;;;5.33;;
1412;SDS011;701;52.526;13.408;2022-07-23T01:01:00;13.32;;;5.53;;
1412;SDS011;701;52.526;13.408;2022-07-23T01:03:26;9.45;;;4.97;;
1412;SDS011;701;52.526;13.408;2022-07-23T01:05:51;9.80;;;4.93;;
1412;SDS011;701;52.526;13.408;2022-07-23T01:08:18;9.73;;;5.75;;
1412;SDS011;701;52.526;13.408;2022-07-23T01:10:43;11.77;;;5.10;;
1412;SDS011;701;52.526;13.408;2022-07-23T01:13:09;10.88;;;5.15;;
1412;SDS011;701;52.526;13.408;2022-07-23T01:15:36;9.65;;;4.60;;
1412;SDS011;701;52.526;13.408;2022-07-23T01:18:03;8.93;;;4.85;;
1412;SDS011;701;52.526;13.408;2022-07-23T01:20:31;13.33;;;5.60;;
1412;SDS011;701;52.526;13.408;2022-07-23T01:22:57;8.63;;;4.68;;
1412;SDS011;701;52.526;13.408;2022-07-23T01:25:23;11.02;;;5.40;;
1412;SDS011;701;52.526;13.408;2022-07-23T01:27:49;12.53;;;5.30;;
1412;SDS011;701;52.526;13.408;2022-07-23T01:30:17;10.93;;;5.13;;
1412;SDS011;701;52.526;13.408;2022-07-23T01:32:42;10.00;;;4.97;;
1412;SDS011;701;52.526;13.408;2022-07-23T01:35:08;11.23;;;5.40;;
1412;SDS011;701;52.526;13.408;2022-07-23T01:37:35;14.10;;;5.97;;
1412;SDS011;701;52.526;13.408;2022-07-23T01:40:00;10.70;;;5.63;;
1412;SDS011;701;52.526;13.408;2022-07-23T01:42:26;10.87;;;5.23;;
1412;SDS011;701;52.526;13.408;2022-07-23T01:44:52;11.10;;;5.38;;
1412;SDS011;701;52.526;13.408;2022-07-23T01:47:17;10.03;;;5.10;;
1412;SDS011;701;52.526;13.408;2022-07-23T01:49:43;17.07;;;5.50;;
1412;SDS011;701;52.526;13.408;2022-07-23T01:52:08;13.15;;;5.22;;
1412;SDS011;701;52.526;13.408;2022-07-23T01:54:36;11.68;;;5.10;;
1412;SDS011;701;52.526;13.408;2022-07-23T01:57:03;13.77;;;5.60;;
1412;SDS011;701;52.526;13.408;2022-07-23T01:59:29;10.25;;;5.55;;
1412;SDS011;701;52.526;13.408;2022-07-23T02:01:55;12.93;;;5.45;;
1412;SDS011;701;52.526;13.408;2022-07-23T02:04:21;12.37;;;5.53;;
1412;SDS011;701;52.526;13.408;2022-07-23T02:06:48;11.07;;;5.47;;
1412;SDS011;701;52.526;13.408;2022-07-23T02:09:15;11.32;;;5.72;;
1412;SDS011;701;52.526;13.408;2022-07-23T02:11:41;10.60;;;5.03;;
1412;SDS011;701;52.526;13.408;2022-07-23T02:14:06;9.88;;;5.38;;
1412;SDS011;701;52.526;13.408;2022-07-23T02:16:32;14.50;;;5.60;;
1412;SDS011;701;52.526;13.408;2022-07-23T02:18:58;11.02;;;5.40;;
1412;SDS011;701;52.526;13.408;2022-07-23T02:21:23;9.30;;;4.57;;
1412;SDS011;701;52.526;13.408;2022-07-23T02:23:49;11.30;;;5.22;;
1412;SDS011;701;52.526;13.408;2022-07-23T02:26:14;11.13;;;5.00;;
1412;SDS011;701;52.526;13.408;2022-07-23T02:28:40;9.40;;;4.97;;
1412;SDS011;701;52.526;13.408;2022-07-23T02:31:05;12.65;;;4.75;;
1412;SDS011;701;52.526;13.408;2022-07-23T02:33:31;10.57;;;4.80;;
1412;SDS011;701;52.526;13.408;2022-07-23T02:36:01;10.52;;;4.78;;
1412;SDS011;701;52.526;13.408;2022-07-23T02:38:26;10.80;;;4.77;;
1412;SDS011;701;52.526;13.408;2022-07-23T02:40:52;12.07;;;5.32;;
1412;SDS011;701;52.526;13.408;2022-07-23T02:43:17;10.90;;;4.70;;
1412;SDS011;701;52.526;13.408;2022-07-23T02:45:43;9.02;;;4.60;;
1412;SDS011;701;52.526;13.408;2022-07-23T02:48:09;9.27;;;5.13;;
1412;SDS011;701;52.526;13.408;2022-07-23T02:50:37;9.95;;;4.70;;
1412;SDS011;701;52.526;13.408;2022-07-23T02:53:03;11.52;;;4.97;;
1412;SDS011;701;52.526;13.408;2022-07-23T02:55:28;11.93;;;4.70;;
1412;SDS011;701;52.526;13.408;2022-07-23T02:57:54;10.57;;;4.87;;
1412;SDS011;701;52.526;13.408;2022-07-23T03:00:20;13.00;;;5.45;;
1412;SDS011;701;52.526;13.408;2022-07-23T03:02:45;9.00;;;4.87;;
1412;SDS011;701;52.526;13.408;2022-07-23T03:05:11;10.57;;;4.50;;
1412;SDS011;701;52.526;13.408;2022-07-23T03:07:36;12.63;;;5.23;;
1412;SDS011;701;52.526;13.408;2022-07-23T03:10:02;10.57;;;5.03;;
1412;SDS011;701;52.526;13.408;2022-07-23T03:12:28;11.10;;;5.13;;
1412;SDS011;701;52.526;13.408;2022-07-23T03:14:53;9.40;;;4.87;;
1412;SDS011;701;52.526;13.408;2022-07-23T03:17:19;9.02;;;4.50;;
1412;SDS011;701;52.526;13.408;2022-07-23T03:19:44;9.63;;;4.30;;
1412;SDS011;701;52.526;13.408;2022-07-23T03:22:10;9.17;;;4.57;;
1412;SDS011;701;52.526;13.408;2022-07-23T03:24:36;9.98;;;4.32;;
1412;SDS011;701;52.526;13.408;2022-07-23T03:27:22;8.63;;;4.85;;
1412;SDS011;701;52.526;13.408;2022-07-23T03:29:53;11.00;;;4.20;;
1412;SDS011;701;52.526;13.408;2022-07-23T03:32:20;10.10;;;4.60;;
1412;SDS011;701;52.526;13.408;2022-07-23T03:34:46;9.18;;;3.80;;
1412;SDS011;701;52.526;13.408;2022-07-23T03:37:12;9.40;;;4.13;;
1412;SDS011;701;52.526;13.408;2022-07-23T03:39:38;8.97;;;4.33;;
1412;SDS011;701;52.526;13.408;2022-07-23T03:42:04;10.40;;;4.37;;
1412;SDS011;701;52.526;13.408;2022-07-23T03:44:29;12.50;;;4.57;;
1412;SDS011;701;52.526;13.408;2022-07-23T03:46:55;8.63;;;4.28;;
1412;SDS011;701;52.526;13.408;2022-07-23T03:49:21;9.93;;;3.90;;
1412;SDS011;701;52.526;13.408;2022-07-23T03:51:46;9.75;;;4.35;;
1412;SDS011;701;52.526;13.408;2022-07-23T03:54:12;10.80;;;3.70;;
1412;SDS011;701;52.526;13.408;2022-07-23T03:56:38;8.00;;;4.03;;
1412;SDS011;701;52.526;13.408;2022-07-23T03:59:03;8.30;;;3.40;;
1412;SDS011;701;52.526;13.408;2022-07-23T04:01:29;8.70;;;3.92;;
1412;SDS011;701;52.526;13.408;2022-07-23T04:03:55;8.53;;;3.90;;
1412;SDS011;701;52.526;13.408;2022-07-23T04:06:20;7.78;;;3.33;;
1412;SDS011;701;52.526;13.408;2022-07-23T04:08:46;8.13;;;3.70;;
1412;SDS011;701;52.526;13.408;2022-07-23T04:11:12;7.72;;;3.10;;
1412;SDS011;701;52.526;13.408;2022-07-23T04:13:37;8.60;;;2.97;;
1412;SDS011;701;52.526;13.408;2022-07-23T04:16:03;8.57;;;3.03;;
1412;SDS011;701;52.526;13.408;2022-07-23T04:18:29;9.23;;;3.10;;
1412;SDS011;701;52.526;13.408;2022-07-23T04:20:55;8.63;;;3.50;;
1412;SDS011;701;52.526;13.408;2022-07-23T04:23:21;12.07;;;2.90;;
1412;SDS011;701;52.526;13.408;2022-07-23T04:25:46;9.00;;;2.70;;
1412;SDS011;701;52.526;13.408;2022-07-23T04:28:12;9.15;;;3.10;;
1412;SDS011;701;52.526;13.408;2022-07-23T04:30:38;8.23;;;2.93;;
1412;SDS011;701;52.526;13.408;2022-07-23T04:33:04;10.30;;;2.70;;
1412;SDS011;701;52.526;13.408;2022-07-23T04:35:31;8.13;;;2.63;;
1412;SDS011;701;52.526;13.408;2022-07-23T04:38:01;9.80;;;2.58;;
1412;SDS011;701;52.526;13.408;2022-07-23T04:40:27;10.30;;;2.67;;
1412;SDS011;701;52.526;13.408;2022-07-23T04:42:53;10.15;;;2.58;;
1412;SDS011;701;52.526;13.408;2022-07-23T04:45:19;11.03;;;2.63;;
1412;SDS011;701;52.526;13.408;2022-07-23T04:47:45;8.63;;;2.50;;
1412;SDS011;701;52.526;13.408;2022-07-23T04:50:10;7.47;;;2.35;;
1412;SDS011;701;52.526;13.408;2022-07-23T04:52:36;7.10;;;2.57;;
1412;SDS011;701;52.526;13.408;2022-07-23T04:55:02;12.65;;;2.80;;
1412;SDS011;701;52.526;13.408;2022-07-23T04:57:28;6.95;;;2.83;;
1412;SDS011;701;52.526;13.408;2022-07-23T04:59:53;12.10;;;2.70;;
1412;SDS011;701;52.526;13.408;2022-07-23T05:02:19;8.20;;;2.40;;
1412;SDS011;701;52.526;13.408;2022-07-23T05:04:45;11.30;;;2.80;;
1412;SDS011;701;52.526;13.408;2022-07-23T05:07:10;6.53;;;2.33;;
1412;SDS011;701;52.526;13.408;2022-07-23T05:09:36;12.60;;;2.58;;
1412;SDS011;701;52.526;13.408;2022-07-23T05:12:02;11.40;;;2.70;;
1412;SDS011;701;52.526;13.408;2022-07-23T05:14:28;8.68;;;2.60;;
1412;SDS011;701;52.526;13.408;2022-07-23T05:16:53;7.43;;;2.78;;
1412;SDS011;701;52.526;13.408;2022-07-23T05:19:19;8.07;;;2.60;;
1412;SDS011;701;52.526;13.408;2022-07-23T05:21:45;8.83;;;2.47;;
1412;SDS011;701;52.526;13.408;2022-07-23T05:24:10;6.43;;;2.70;;
1412;SDS011;701;52.526;13.408;2022-07-23T05:26:36;6.20;;;2.30;;
1412;SDS011;701;52.526;13.408;2022-07-23T05:29:02;7.88;;;2.92;;
1412;SDS011;701;52.526;13.408;2022-07-23T05:31:27;6.87;;;2.43;;
1412;SDS011;701;52.526;13.408;2022-07-23T05:33:53;8.63;;;2.60;;
1412;SDS011;701;52.526;13.408;2022-07-23T05:36:18;8.37;;;2.70;;
1412;SDS011;701;52.526;13.408;2022-07-23T05:38:45;8.93;;;2.42;;
1412;SDS011;701;52.526;13.408;2022-07-23T05:41:10;7.27;;;2.43;;
1412;SDS011;701;52.526;13.408;2022-07-23T05:43:36;8.43;;;2.53;;
1412;SDS011;701;52.526;13.408;2022-07-23T05:46:01;8.70;;;2.58;;
1412;SDS011;701;52.526;13.408;2022-07-23T05:48:27;9.37;;;3.13;;
1412;SDS011;701;52.526;13.408;2022-07-23T05:50:52;7.27;;;2.77;;
1412;SDS011;701;52.526;13.408;2022-07-23T05:53:18;8.33;;;3.00;;
1412;SDS011;701;52.526;13.408;2022-07-23T05:55:44;7.23;;;2.77;;
1412;SDS011;701;52.526;13.408;2022-07-23T05:58:09;7.75;;;2.95;;
1412;SDS011;701;52.526;13.408;2022-07-23T06:00:35;8.80;;;3.03;;
1412;SDS011;701;52.526;13.408;2022-07-23T06:03:01;7.10;;;3.00;;
1412;SDS011;701;52.526;13.408;2022-07-23T06:05:26;8.47;;;2.80;;
1412;SDS011;701;52.526;13.408;2022-07-23T06:07:52;9.70;;;2.73;;
1412;SDS011;701;52.526;13.408;2022-07-23T06:10:18;10.88;;;2.60;;
1412;SDS011;701;52.526;13.408;2022-07-23T06:12:43;9.95;;;3.13;;
1412;SDS011;701;52.526;13.408;2022-07-23T06:15:09;9.63;;;2.80;;
1412;SDS011;701;52.526;13.408;2022-07-23T06:17:36;6.00;;;2.72;;
1412;SDS011;701;52.526;13.408;2022-07-23T06:20:04;9.63;;;2.97;;
1412;SDS011;701;52.526;13.408;2022-07-23T06:22:31;8.63;;;3.10;;
1412;SDS011;701;52.526;13.408;2022-07-23T06:24:56;8.98;;;3.15;;
1412;SDS011;701;52.526;13.408;2022-07-23T06:27:22;7.43;;;2.90;;
1412;SDS011;701;52.526;13.408;2022-07-23T06:29:47;7.23;;;2.93;;
1412;SDS011;701;52.526;13.408;2022-07-23T06:32:13;7.75;;;3.15;;
1412;SDS011;701;52.526;13.408;2022-07-23T06:34:38;8.83;;;3.60;;
1412;SDS011;701;52.526;13.408;2022-07-23T06:37:04;8.70;;;3.20;;
1412;SDS011;701;52.526;13.408;2022-07-23T06:39:30;8.95;;;3.35;;
1412;SDS011;701;52.526;13.408;2022-07-23T06:41:55;7.80;;;3.20;;
1412;SDS011;701;52.526;13.408;2022-07-23T06:44:21;7.63;;;2.90;;
1412;SDS011;701;52.526;13.408;2022-07-23T06:46:47;8.03;;;3.03;;
1412;SDS011;701;52.526;13.408;2022-07-23T06:49:13;9.27;;;3.00;;
1412;SDS011;701;52.526;13.408;2022-07-23T06:51:39;11.13;;;3.25;;
1412;SDS011;701;52.526;13.408;2022-07-23T06:54:05;8.00;;;3.10;;
1412;SDS011;701;52.526;13.408;2022-07-23T06:56:30;7.57;;;3.33;;
1412;SDS011;701;52.526;13.408;2022-07-23T06:58:56;9.47;;;4.00;;
1412;SDS011;701;52.526;13.408;2022-07-23T07:01:21;11.07;;;3.95;;
1412;SDS011;701;52.526;13.408;2022-07-23T07:03:47;10.53;;;3.30;;
1412;SDS011;701;52.526;13.408;2022-07-23T07:06:13;12.98;;;3.67;;
1412;SDS011;701;52.526;13.408;2022-07-23T07:08:39;10.17;;;3.57;;
1412;SDS011;701;52.526;13.408;2022-07-23T07:11:04;7.72;;;3.35;;
1412;SDS011;701;52.526;13.408;2022-07-23T07:13:30;7.27;;;3.47;;
1412;SDS011;701;52.526;13.408;2022-07-23T07:15:56;9.18;;;3.40;;
1412;SDS011;701;52.526;13.408;2022-07-23T07:18:22;11.40;;;3.37;;
1412;SDS011;701;52.526;13.408;2022-07-23T07:20:48;8.95;;;3.35;;
1412;SDS011;701;52.526;13.408;2022-07-23T07:23:14;13.15;;;3.53;;
1412;SDS011;701;52.526;13.408;2022-07-23T07:25:39;15.13;;;3.97;;
1412;SDS011;701;52.526;13.408;2022-07-23T07:28:05;10.50;;;3.37;;
1412;SDS011;701;52.526;13.408;2022-07-23T07:30:31;12.13;;;4.00;;
1412;SDS011;701;52.526;13.408;2022-07-23T07:32:56;10.13;;;3.00;;
1412;SDS011;701;52.526;13.408;2022-07-23T07:35:22;10.77;;;3.57;;
1412;SDS011;701;52.526;13.408;2022-07-23T07:37:48;7.57;;;3.10;;
1412;SDS011;701;52.526;13.408;2022-07-23T07:40:14;7.45;;;3.50;;
1412;SDS011;701;52.526;13.408;2022-07-23T07:42:46;10.25;;;3.50;;
1412;SDS011;701;52.526;13.408;2022-07-23T07:45:13;10.40;;;3.63;;
1412;SDS011;701;52.526;13.408;2022-07-23T07:47:41;10.77;;;3.57;;
1412;SDS011;701;52.526;13.408;2022-07-23T07:50:07;11.77;;;4.25;;
1412;SDS011;701;52.526;13.408;2022-07-23T07:52:35;14.63;;;3.50;;
1412;SDS011;701;52.526;13.408;2022-07-23T07:55:04;8.35;;;3.30;;
1412;SDS011;701;52.526;13.408;2022-07-23T07:57:32;9.73;;;3.80;;
1412;SDS011;701;52.526;13.408;2022-07-23T07:59:58;10.27;;;3.33;;
1412;SDS011;701;52.526;13.408;2022-07-23T08:02:23;12.18;;;3.80;;
1412;SDS011;701;52.526;13.408;2022-07-23T08:04:49;9.47;;;3.07;;
1412;SDS011;701;52.526;13.408;2022-07-23T08:07:15;9.18;;;2.90;;
1412;SDS011;701;52.526;13.408;2022-07-23T08:09:41;8.00;;;3.40;;
1412;SDS011;701;52.526;13.408;2022-07-23T08:12:06;9.38;;;3.53;;
1412;SDS011;701;52.526;13.408;2022-07-23T08:14:32;10.77;;;3.38;;
1412;SDS011;701;52.526;13.408;2022-07-23T08:16:58;6.67;;;2.97;;
1412;SDS011;701;52.526;13.408;2022-07-23T08:19:23;7.47;;;2.97;;
1412;SDS011;701;52.526;13.408;2022-07-23T08:21:49;7.63;;;2.40;;
1412;SDS011;701;52.526;13.408;2022-07-23T08:24:15;7.67;;;2.80;;
1412;SDS011;701;52.526;13.408;2022-07-23T08:26:40;8.05;;;2.70;;
1412;SDS011;701;52.526;13.408;2022-07-23T08:29:06;8.13;;;2.53;;
1412;SDS011;701;52.526;13.408;2022-07-23T08:31:31;7.70;;;2.65;;
1412;SDS011;701;52.526;13.408;2022-07-23T08:33:58;8.07;;;2.70;;
1412;SDS011;701;52.526;13.408;2022-07-23T08:36:24;6.85;;;2.80;;
1412;SDS011;701;52.526;13.408;2022-07-23T08:38:52;5.82;;;2.20;;
1412;SDS011;701;52.526;13.408;2022-07-23T08:41:18;6.57;;;2.75;;
1412;SDS011;701;52.526;13.408;2022-07-23T08:43:44;7.32;;;2.10;;
1412;SDS011;701;52.526;13.408;2022-07-23T08:46:11;7.27;;;2.07;;
1412;SDS011;701;52.526;13.408;2022-07-23T08:48:39;9.52;;;2.40;;
1412;SDS011;701;52.526;13.408;2022-07-23T08:51:05;7.80;;;2.35;;
1412;SDS011;701;52.526;13.408;2022-07-23T08:53:33;6.78;;;2.50;;
1412;SDS011;701;52.526;13.408;2022-07-23T08:56:04;6.00;;;2.13;;
1412;SDS011;701;52.526;13.408;2022-07-23T08:58:30;7.60;;;2.70;;
1412;SDS011;701;52.526;13.408;2022-07-23T09:00:57;8.40;;;2.72;;
1412;SDS011;701;52.526;13.408;2022-07-23T09:03:25;7.82;;;2.85;;
1412;SDS011;701;52.526;13.408;2022-07-23T09:05:55;6.50;;;2.10;;
1412;SDS011;701;52.526;13.408;2022-07-23T09:08:23;8.93;;;2.65;;
1412;SDS011;701;52.526;13.408;2022-07-23T09:11:01;6.77;;;2.50;;
1412;SDS011;701;52.526;13.408;2022-07-23T09:15:55;7.77;;;2.80;;
1412;SDS011;701;52.526;13.408;2022-07-23T09:18:33;7.73;;;2.60;;
1412;SDS011;701;52.526;13.408;2022-07-23T09:26:18;8.07;;;2.78;;
1412;SDS011;701;52.526;13.408;2022-07-23T09:28:54;8.50;;;2.50;;
1412;SDS011;701;52.526;13.408;2022-07-23T09:31:31;6.30;;;2.47;;
1412;SDS011;701;52.526;13.408;2022-07-23T09:36:52;7.60;;;3.28;;
1412;SDS011;701;52.526;13.408;2022-07-23T09:39:27;7.43;;;2.50;;
1412;SDS011;701;52.526;13.408;2022-07-23T09:41:54;7.18;;;2.53;;
1412;SDS011;701;52.526;13.408;2022-07-23T09:44:20;9.87;;;3.17;;
1412;SDS011;701;52.526;13.408;2022-07-23T09:46:47;7.85;;;3.22;;
1412;SDS011;701;52.526;13.408;2022-07-23T09:51:53;9.15;;;3.22;;
1412;SDS011;701;52.526;13.408;2022-07-23T09:54:28;7.27;;;3.30;;
1412;SDS011;701;52.526;13.408;2022-07-23T09:57:05;13.82;;;7.05;;
1412;SDS011;701;52.526;13.408;2022-07-23T09:59:41;6.78;;;2.95;;
1412;SDS011;701;52.526;13.408;2022-07-23T10:02:08;10.27;;;4.03;;
1412;SDS011;701;52.526;13.408;2022-07-23T10:04:37;8.45;;;3.20;;
1412;SDS011;701;52.526;13.408;2022-07-23T10:07:03;11.57;;;3.00;;
1412;SDS011;701;52.526;13.408;2022-07-23T10:09:32;10.63;;;3.40;;
1412;SDS011;701;52.526;13.408;2022-07-23T10:12:01;9.88;;;3.88;;
1412;SDS011;701;52.526;13.408;2022-07-23T10:14:36;8.85;;;3.00;;
1412;SDS011;701;52.526;13.408;2022-07-23T10:17:07;8.30;;;3.45;;
1412;SDS011;701;52.526;13.408;2022-07-23T10:19:33;7.50;;;3.23;;
1412;SDS011;701;52.526;13.408;2022-07-23T10:22:42;7.82;;;3.00;;
1412;SDS011;701;52.526;13.408;2022-07-23T10:32:52;10.80;;;2.83;;
1412;SDS011;701;52.526;13.408;2022-07-23T10:35:26;7.78;;;3.15;;
1412;SDS011;701;52.526;13.408;2022-07-23T10:38:03;9.68;;;3.05;;
1412;SDS011;701;52.526;13.408;2022-07-23T10:40:37;6.50;;;3.03;;
1412;SDS011;701;52.526;13.408;2022-07-23T10:43:22;8.20;;;3.03;;
1412;SDS011;701;52.526;13.408;2022-07-23T10:45:48;6.22;;;2.60;;
1412;SDS011;701;52.526;13.408;2022-07-23T10:50:42;8.30;;;2.30;;
1412;SDS011;701;52.526;13.408;2022-07-23T10:55:39;12.93;;;3.33;;
1412;SDS011;701;52.526;13.408;2022-07-23T10:58:07;7.28;;;2.88;;
1412;SDS011;701;52.526;13.408;2022-07-23T11:00:34;9.80;;;3.63;;
1412;SDS011;701;52.526;13.408;2022-07-23T11:03:02;7.65;;;3.67;;
1412;SDS011;701;52.526;13.408;2022-07-23T11:05:47;6.75;;;2.80;;
1412;SDS011;701;52.526;13.408;2022-07-23T11:10:43;7.20;;;2.95;;
1412;SDS011;701;52.526;13.408;2022-07-23T11:16:07;7.43;;;2.70;;
1412;SDS011;701;52.526;13.408;2022-07-23T11:26:45;6.23;;;2.67;;
1412;SDS011;701;52.526;13.408;2022-07-23T11:35:18;7.32;;;2.92;;
1412;SDS011;701;52.526;13.408;2022-07-23T11:37:52;7.85;;;3.28;;
1412;SDS011;701;52.526;13.408;2022-07-23T11:40:23;7.82;;;2.80;;
1412;SDS011;701;52.526;13.408;2022-07-23T11:43:00;9.57;;;3.60;;
1412;SDS011;701;52.526;13.408;2022-07-23T11:45:36;6.72;;;3.15;;
1412;SDS011;701;52.526;13.408;2022-07-23T11:48:02;8.50;;;3.10;;
1412;SDS011;701;52.526;13.408;2022-07-23T11:50:29;8.80;;;3.53;;
1412;SDS011;701;52.526;13.408;2022-07-23T11:52:55;7.40;;;3.03;;
1412;SDS011;701;52.526;13.408;2022-07-23T11:55:21;11.25;;;3.30;;
1412;SDS011;701;52.526;13.408;2022-07-23T11:57:47;7.80;;;3.25;;
1412;SDS011;701;52.526;13.408;2022-07-23T12:02:43;8.07;;;2.95;;
1412;SDS011;701;52.526;13.408;2022-07-23T12:05:13;8.40;;;3.10;;
1412;SDS011;701;52.526;13.408;2022-07-23T12:07:42;10.15;;;3.10;;
1412;SDS011;701;52.526;13.408;2022-07-23T12:12:37;8.23;;;2.57;;
1412;SDS011;701;52.526;13.408;2022-07-23T12:15:04;9.10;;;2.90;;
1412;SDS011;701;52.526;13.408;2022-07-23T12:17:32;8.20;;;2.95;;
1412;SDS011;701;52.526;13.408;2022-07-23T12:19:59;6.55;;;2.97;;
1412;SDS011;701;52.526;13.408;2022-07-23T12:22:26;7.97;;;3.13;;
1412;SDS011;701;52.526;13.408;2022-07-23T12:25:19;7.00;;;2.80;;
1412;SDS011;701;52.526;13.408;2022-07-23T12:27:57;8.00;;;3.50;;
1412;SDS011;701;52.526;13.408;2022-07-23T12:30:29;7.68;;;2.95;;
1412;SDS011;701;52.526;13.408;2022-07-23T12:33:02;7.00;;;3.58;;
1412;SDS011;701;52.526;13.408;2022-07-23T12:35:32;6.60;;;3.07;;
1412;SDS011;701;52.526;13.408;2022-07-23T12:38:00;6.90;;;3.05;;
1412;SDS011;701;52.526;13.408;2022-07-23T12:40:30;8.38;;;3.45;;
1412;SDS011;701;52.526;13.408;2022-07-23T12:45:53;9.40;;;3.55;;
1412;SDS011;701;52.526;13.408;2022-07-23T12:48:21;8.80;;;3.47;;
1412;SDS011;701;52.526;13.408;2022-07-23T12:51:09;6.78;;;2.95;;
1412;SDS011;701;52.526;13.408;2022-07-23T13:01:35;8.20;;;3.30;;
1412;SDS011;701;52.526;13.408;2022-07-23T13:06:29;7.82;;;3.20;;
1412;SDS011;701;52.526;13.408;2022-07-23T13:08:56;9.05;;;3.00;;
1412;SDS011;701;52.526;13.408;2022-07-23T13:11:22;10.77;;;3.43;;
1412;SDS011;701;52.526;13.408;2022-07-23T13:13:48;8.97;;;3.60;;
1412;SDS011;701;52.526;13.408;2022-07-23T13:16:14;8.10;;;3.38;;
1412;SDS011;701;52.526;13.408;2022-07-23T13:18:40;6.63;;;2.83;;
1412;SDS011;701;52.526;13.408;2022-07-23T13:21:06;5.53;;;2.63;;
1412;SDS011;701;52.526;13.408;2022-07-23T13:23:31;6.57;;;2.83;;
1412;SDS011;701;52.526;13.408;2022-07-23T13:25:57;8.63;;;3.00;;
1412;SDS011;701;52.526;13.408;2022-07-23T13:28:22;6.90;;;3.53;;
1412;SDS011;701;52.526;13.408;2022-07-23T13:30:49;6.03;;;2.72;;
1412;SDS011;701;52.526;13.408;2022-07-23T13:33:19;7.97;;;3.28;;
1412;SDS011;701;52.526;13.408;2022-07-23T13:35:48;11.30;;;3.57;;
1412;SDS011;701;52.526;13.408;2022-07-23T13:38:15;7.25;;;3.40;;
1412;SDS011;701;52.526;13.408;2022-07-23T13:40:42;7.30;;;3.25;;
1412;SDS011;701;52.526;13.408;2022-07-23T13:43:10;9.85;;;3.00;;
1412;SDS011;701;52.526;13.408;2022-07-23T13:45:37;6.55;;;2.83;;
1412;SDS011;701;52.526;13.408;2022-07-23T13:48:04;9.90;;;2.80;;
1412;SDS011;701;52.526;13.408;2022-07-23T13:50:31;6.88;;;2.95;;
1412;SDS011;701;52.526;13.408;2022-07-23T13:52:59;7.35;;;3.00;;
1412;SDS011;701;52.526;13.408;2022-07-23T13:55:26;6.28;;;2.78;;
1412;SDS011;701;52.526;13.408;2022-07-23T13:57:52;7.17;;;3.17;;
1412;SDS011;701;52.526;13.408;2022-07-23T14:00:17;7.88;;;3.05;;
1412;SDS011;701;52.526;13.408;2022-07-23T14:02:43;6.10;;;3.10;;
1412;SDS011;701;52.526;13.408;2022-07-23T14:05:09;7.40;;;2.83;;
1412;SDS011;701;52.526;13.408;2022-07-23T14:07:36;8.23;;;2.90;;
1412;SDS011;701;52.526;13.408;2022-07-23T14:10:03;7.65;;;2.75;;
1412;SDS011;701;52.526;13.408;2022-07-23T14:12:29;9.75;;;2.65;;
1412;SDS011;701;52.526;13.408;2022-07-23T14:14:55;6.90;;;2.70;;
1412;SDS011;701;52.526;13.408;2022-07-23T14:17:21;7.30;;;2.50;;
1412;SDS011;701;52.526;13.408;2022-07-23T14:19:47;7.50;;;2.72;;
1412;SDS011;701;52.526;13.408;2022-07-23T14:22:12;6.67;;;2.30;;
1412;SDS011;701;52.526;13.408;2022-07-23T14:24:38;7.03;;;2.72;;
1412;SDS011;701;52.526;13.408;2022-07-23T14:27:04;8.93;;;2.97;;
1412;SDS011;701;52.526;13.408;2022-07-23T14:29:30;7.40;;;2.85;;
1412;SDS011;701;52.526;13.408;2022-07-23T14:31:56;7.40;;;2.53;;
1412;SDS011;701;52.526;13.408;2022-07-23T14:34:22;8.30;;;2.50;;
1412;SDS011;701;52.526;13.408;2022-07-23T14:36:48;5.95;;;2.72;;
1412;SDS011;701;52.526;13.408;2022-07-23T14:39:14;8.97;;;2.70;;
1412;SDS011;701;52.526;13.408;2022-07-23T14:41:40;6.20;;;2.58;;
1412;SDS011;701;52.526;13.408;2022-07-23T14:44:05;6.43;;;2.43;;
1412;SDS011;701;52.526;13.408;2022-07-23T14:46:31;7.43;;;2.45;;
1412;SDS011;701;52.526;13.408;2022-07-23T14:48:57;7.13;;;2.42;;
1412;SDS011;701;52.526;13.408;2022-07-23T14:51:23;7.13;;;2.70;;
1412;SDS011;701;52.526;13.408;2022-07-23T14:53:48;6.78;;;2.30;;
1412;SDS011;701;52.526;13.408;2022-07-23T14:56:14;6.63;;;2.50;;
1412;SDS011;701;52.526;13.408;2022-07-23T14:58:40;5.15;;;2.28;;
1412;SDS011;701;52.526;13.408;2022-07-23T15:01:06;5.65;;;2.25;;
1412;SDS011;701;52.526;13.408;2022-07-23T15:03:32;9.43;;;2.47;;
1412;SDS011;701;52.526;13.408;2022-07-23T15:05:58;5.85;;;2.20;;
1412;SDS011;701;52.526;13.408;2022-07-23T15:08:24;6.60;;;2.03;;
1412;SDS011;701;52.526;13.408;2022-07-23T15:10:49;4.63;;;2.03;;
1412;SDS011;701;52.526;13.408;2022-07-23T15:13:15;5.72;;;2.20;;
1412;SDS011;701;52.526;13.408;2022-07-23T15:15:41;6.80;;;2.35;;
1412;SDS011;701;52.526;13.408;2022-07-23T15:18:07;6.33;;;2.43;;
1412;SDS011;701;52.526;13.408;2022-07-23T15:20:33;6.37;;;2.60;;
1412;SDS011;701;52.526;13.408;2022-07-23T15:22:58;5.37;;;2.20;;
1412;SDS011;701;52.526;13.408;2022-07-23T15:25:24;5.65;;;1.85;;
1412;SDS011;701;52.526;13.408;2022-07-23T15:27:50;5.63;;;1.83;;
1412;SDS011;701;52.526;13.408;2022-07-23T15:30:17;7.60;;;1.95;;
1412;SDS011;701;52.526;13.408;2022-07-23T15:32:43;5.22;;;2.20;;
1412;SDS011;701;52.526;13.408;2022-07-23T15:35:08;7.00;;;2.07;;
1412;SDS011;701;52.526;13.408;2022-07-23T15:37:34;6.80;;;2.17;;
1412;SDS011;701;52.526;13.408;2022-07-23T15:40:00;5.45;;;1.98;;
1412;SDS011;701;52.526;13.408;2022-07-23T15:42:29;5.87;;;2.33;;
1412;SDS011;701;52.526;13.408;2022-07-23T15:44:54;7.53;;;2.28;;
1412;SDS011;701;52.526;13.408;2022-07-23T15:47:20;6.07;;;2.10;;
1412;SDS011;701;52.526;13.408;2022-07-23T15:49:46;5.40;;;1.95;;
1412;SDS011;701;52.526;13.408;2022-07-23T15:52:12;7.93;;;2.00;;
1412;SDS011;701;52.526;13.408;2022-07-23T15:54:38;7.07;;;2.03;;
1412;SDS011;701;52.526;13.408;2022-07-23T15:57:03;5.67;;;1.90;;
1412;SDS011;701;52.526;13.408;2022-07-23T15:59:29;4.90;;;1.70;;
1412;SDS011;701;52.526;13.408;2022-07-23T16:01:55;11.07;;;2.88;;
1412;SDS011;701;52.526;13.408;2022-07-23T16:04:21;7.13;;;2.85;;
1412;SDS011;701;52.526;13.408;2022-07-23T16:06:47;9.07;;;3.73;;
1412;SDS011;701;52.526;13.408;2022-07-23T16:09:12;6.23;;;2.80;;
1412;SDS011;701;52.526;13.408;2022-07-23T16:11:38;7.72;;;2.03;;
1412;SDS011;701;52.526;13.408;2022-07-23T16:14:03;11.07;;;3.90;;